createdAt,value
2019-04-20T00:03:42.356Z,7.97
2019-04-20T00:09:12.048Z,7.81
2019-04-20T00:14:34.511Z,7.60
2019-04-20T00:19:57.840Z,7.39
2019-04-20T00:25:53.163Z,7.25
2019-04-20T00:31:23.600Z,7.13
2019-04-20T00:36:32.883Z,7.06
2019-04-20T00:42:02.320Z,6.93
2019-04-20T00:47:34.903Z,6.81
2019-04-20T00:52:59.059Z,6.73
2019-04-20T00:58:20.219Z,6.78
2019-04-20T01:04:02.281Z,6.74
2019-04-20T01:09:43.164Z,6.70
2019-04-20T01:15:12.897Z,6.70
2019-04-20T01:20:33.978Z,6.73
2019-04-20T01:26:05.473Z,6.65
2019-04-20T01:31:33.682Z,6.57
2019-04-20T01:37:04.413Z,6.51
2019-04-20T01:42:17.165Z,6.53
2019-04-20T01:47:47.246Z,6.35
2019-04-20T01:53:16.419Z,6.35
2019-04-20T01:59:10.691Z,6.41
2019-04-20T02:04:29.173Z,6.49
2019-04-20T02:09:56.059Z,6.43
2019-04-20T02:15:26.157Z,6.30
2019-04-20T02:20:59.858Z,5.90
2019-04-20T02:26:07.139Z,5.60
2019-04-20T02:32:11.683Z,5.41
2019-04-20T02:43:15.027Z,5.03
2019-04-20T02:48:25.909Z,5.17
2019-04-20T02:54:02.162Z,5.25
2019-04-20T03:04:24.938Z,4.94
2019-04-20T03:09:57.982Z,4.67
2019-04-20T03:15:27.607Z,4.52
2019-04-20T03:20:54.418Z,4.51
2019-04-20T03:26:17.604Z,4.62
2019-04-20T03:42:28.887Z,4.69
2019-04-20T03:48:07.396Z,4.63
2019-04-20T03:53:39.304Z,4.61
2019-04-20T03:59:20.790Z,4.57
2019-04-20T04:05:03.326Z,4.69
2019-04-20T04:10:20.682Z,4.77
2019-04-20T04:15:36.227Z,4.73
2019-04-20T04:21:06.256Z,4.73
2019-04-20T04:26:39.062Z,4.83
2019-04-20T04:32:22.254Z,4.88
2019-04-20T04:37:37.545Z,5.21
2019-04-20T04:43:02.240Z,5.70
2019-04-20T04:48:16.777Z,6.18
2019-04-20T04:53:44.226Z,6.81
2019-04-20T04:58:58.279Z,7.73
2019-04-20T05:05:05.371Z,8.49
2019-04-20T05:10:09.831Z,9.23
2019-04-20T05:15:48.463Z,9.98
2019-04-20T05:21:31.422Z,10.72
2019-04-20T05:27:14.659Z,11.46
2019-04-20T05:32:28.432Z,12.23
2019-04-20T05:38:06.883Z,12.66
2019-04-20T05:43:31.607Z,12.80
2019-04-20T05:49:04.554Z,13.47
2019-04-20T05:54:26.571Z,13.20
2019-04-20T05:59:55.770Z,13.07
2019-04-20T06:05:36.407Z,13.93
2019-04-20T06:10:45.485Z,14.18
2019-04-20T06:16:40.988Z,14.44
2019-04-20T06:22:10.269Z,14.99
2019-04-20T06:27:38.422Z,15.20
2019-04-20T06:33:51.998Z,16.10
2019-04-20T06:39:02.324Z,16.71
2019-04-20T06:49:43.776Z,18.22
2019-04-20T06:55:15.716Z,18.24
2019-04-20T07:00:55.309Z,18.18
2019-04-20T07:06:30.877Z,18.55
2019-04-20T07:11:37.442Z,19.02
2019-04-20T07:17:29.735Z,19.50
2019-04-20T07:23:11.130Z,19.98
2019-04-20T07:28:27.807Z,20.67
2019-04-20T07:33:52.487Z,21.33
2019-04-20T07:39:21.654Z,21.40
2019-04-20T07:44:48.633Z,21.29
2019-04-20T07:50:04.956Z,22.20
2019-04-20T08:01:18.176Z,22.94
2019-04-20T08:06:33.049Z,23.28
2019-04-20T08:12:18.580Z,23.42
2019-04-20T08:17:52.804Z,23.17
2019-04-20T08:23:05.051Z,23.39
2019-04-20T08:28:24.227Z,24.12
2019-04-20T08:34:15.155Z,24.46
2019-04-20T08:39:53.365Z,25.00
2019-04-20T08:45:03.631Z,24.76
2019-04-20T08:50:23.691Z,25.04
2019-04-20T08:55:42.532Z,24.89
2019-04-20T09:00:58.755Z,25.37
2019-04-20T09:06:32.311Z,24.78
2019-04-20T09:12:00.831Z,24.98
2019-04-20T09:17:27.251Z,24.99
2019-04-20T09:23:15.688Z,25.15
2019-04-20T09:28:56.709Z,25.55
2019-04-20T09:34:25.858Z,25.71
2019-04-20T09:40:04.756Z,25.55
2019-04-20T09:45:19.938Z,25.65
2019-04-20T09:50:57.514Z,26.52
2019-04-20T09:56:19.791Z,26.56
2019-04-20T10:01:35.110Z,25.61
2019-04-20T10:06:55.238Z,27.02
2019-04-20T10:12:19.755Z,27.22
2019-04-20T10:17:45.676Z,28.03
2019-04-20T10:23:09.477Z,26.61
2019-04-20T10:28:33.940Z,27.66
2019-04-20T10:33:59.767Z,28.60
2019-04-20T10:39:25.125Z,28.94
2019-04-20T10:44:52.304Z,28.38
2019-04-20T10:50:16.860Z,27.89
2019-04-20T10:55:41.123Z,29.51
2019-04-20T11:01:05.622Z,30.13
2019-04-20T11:06:29.530Z,29.60
2019-04-20T11:11:54.452Z,30.31
2019-04-20T11:17:18.393Z,30.23
2019-04-20T11:22:42.274Z,30.89
2019-04-20T11:28:08.207Z,30.85
2019-04-20T11:33:34.140Z,30.26
2019-04-20T11:38:58.900Z,29.99
2019-04-20T11:44:23.769Z,29.91
2019-04-20T11:49:49.404Z,29.67
2019-04-20T11:55:14.080Z,30.27
2019-04-20T12:00:53.882Z,30.34
2019-04-20T12:06:08.804Z,30.89
2019-04-20T12:11:46.789Z,31.47
2019-04-20T12:16:59.723Z,30.70
2019-04-20T12:22:26.253Z,30.59
2019-04-20T12:27:55.504Z,30.22
2019-04-20T12:33:17.814Z,30.38
2019-04-20T12:38:43.230Z,30.33
2019-04-20T12:44:07.907Z,31.09
2019-04-20T12:49:31.877Z,29.05
2019-04-20T12:54:59.517Z,30.33
2019-04-20T13:00:23.863Z,31.07
2019-04-20T13:05:49.858Z,30.42
2019-04-20T13:11:24.718Z,29.84
2019-04-20T13:16:51.753Z,29.97
2019-04-20T13:22:16.940Z,29.83
2019-04-20T13:27:42.921Z,28.41
2019-04-20T13:33:07.968Z,28.88
2019-04-20T13:38:32.093Z,29.77
2019-04-20T13:43:59.311Z,30.61
2019-04-20T13:49:22.973Z,30.63
2019-04-20T13:54:47.564Z,29.29
2019-04-20T14:00:32.100Z,28.66
2019-04-20T14:05:56.450Z,28.05
2019-04-20T14:11:21.576Z,28.16
2019-04-20T14:16:47.404Z,28.31
2019-04-20T14:22:11.622Z,28.24
2019-04-20T14:27:37.102Z,28.97
2019-04-20T14:33:02.911Z,28.43
2019-04-20T14:38:28.519Z,28.53
2019-04-20T14:43:55.144Z,29.27
2019-04-20T14:49:19.115Z,28.99
2019-04-20T14:54:43.613Z,29.45
2019-04-20T15:00:25.749Z,29.70
2019-04-20T15:05:50.869Z,28.87
2019-04-20T15:11:16.671Z,26.78
2019-04-20T15:16:42.664Z,27.16
2019-04-20T15:22:27.630Z,27.59
2019-04-20T15:27:54.479Z,27.97
2019-04-20T15:33:19.397Z,27.52
2019-04-20T15:38:45.013Z,26.39
2019-04-20T15:44:09.351Z,25.56
2019-04-20T15:49:33.848Z,25.80
2019-04-20T15:55:03.089Z,25.13
2019-04-20T16:00:24.760Z,24.00
2019-04-20T16:06:09.547Z,23.88
2019-04-20T16:11:34.990Z,23.14
2019-04-20T16:17:00.697Z,24.11
2019-04-20T16:22:27.059Z,24.12
2019-04-20T16:27:51.828Z,24.12
2019-04-20T16:33:16.491Z,23.97
2019-04-20T16:38:41.865Z,23.87
2019-04-20T16:44:07.215Z,23.31
2019-04-20T16:49:31.162Z,22.88
2019-04-20T16:54:56.024Z,23.10
2019-04-20T17:00:21.421Z,23.22
2019-04-20T17:05:45.352Z,22.60
2019-04-20T17:11:11.746Z,21.68
2019-04-20T17:16:35.657Z,20.73
2019-04-20T17:22:01.232Z,20.59
2019-04-20T17:27:49.160Z,20.73
2019-04-20T17:33:15.897Z,20.46
2019-04-20T17:38:47.147Z,19.60
2019-04-20T17:44:25.021Z,19.07
2019-04-20T17:49:42.377Z,18.73
2019-04-20T17:55:17.811Z,18.37
2019-04-20T18:00:47.039Z,18.06
2019-04-20T18:06:30.377Z,17.79
2019-04-20T18:11:42.892Z,17.53
2019-04-20T18:17:34.677Z,17.30
2019-04-20T18:22:54.771Z,16.92
2019-04-20T18:28:35.247Z,16.61
2019-04-20T18:33:42.591Z,16.22
2019-04-20T18:39:11.688Z,15.83
2019-04-20T18:44:55.674Z,15.41
2019-04-20T18:50:13.119Z,15.08
2019-04-20T18:55:36.966Z,14.88
2019-04-20T19:00:53.699Z,14.76
2019-04-20T19:06:18.091Z,14.65
2019-04-20T19:11:49.535Z,14.44
2019-04-20T19:17:40.515Z,14.42
2019-04-20T19:22:52.845Z,14.24
2019-04-20T19:28:20.718Z,13.99
2019-04-20T19:34:03.408Z,13.76
2019-04-20T19:39:28.819Z,13.49
2019-04-20T19:44:53.075Z,13.31
2019-04-20T19:50:33.480Z,13.14
2019-04-20T19:55:41.234Z,13.12
2019-04-20T20:00:56.314Z,13.08
2019-04-20T20:06:29.246Z,13.16
2019-04-20T20:11:46.727Z,13.18
2019-04-20T20:17:33.213Z,13.13
2019-04-20T20:22:44.675Z,12.92
2019-04-20T20:28:17.041Z,12.85
2019-04-20T20:33:43.864Z,12.80
2019-04-20T20:39:14.613Z,12.67
2019-04-20T20:44:42.169Z,12.68
2019-04-20T20:50:22.659Z,12.63
2019-04-20T20:55:32.105Z,12.46
2019-04-20T21:01:02.185Z,12.40
2019-04-20T21:06:17.248Z,12.36
2019-04-20T21:11:40.253Z,12.33
2019-04-20T21:17:12.285Z,12.20
2019-04-20T21:22:53.727Z,12.34
2019-04-20T21:27:57.110Z,12.44
2019-04-20T21:33:26.999Z,12.34
2019-04-20T21:38:48.650Z,12.15
2019-04-20T21:44:19.652Z,12.06
2019-04-20T21:49:51.611Z,11.94
2019-04-20T21:55:06.005Z,11.87
2019-04-20T22:00:42.664Z,11.61
2019-04-20T22:06:08.930Z,11.35
2019-04-20T22:11:33.788Z,11.03
2019-04-20T22:17:01.835Z,10.81
2019-04-20T22:22:44.099Z,10.68
2019-04-20T22:27:50.385Z,10.62
2019-04-20T22:33:25.113Z,10.41
2019-04-20T22:39:07.355Z,10.21
2019-04-20T22:44:34.810Z,9.99
2019-04-20T22:50:15.204Z,9.88
2019-04-20T22:55:47.301Z,9.71
2019-04-20T23:00:57.286Z,9.58
2019-04-20T23:06:16.690Z,9.57
2019-04-20T23:11:42.305Z,9.59
2019-04-20T23:17:06.569Z,9.65
2019-04-20T23:22:36.849Z,9.54
2019-04-20T23:27:59.614Z,9.60
2019-04-20T23:33:23.419Z,9.54
2019-04-20T23:38:52.690Z,9.53
2019-04-20T23:44:33.985Z,9.62
2019-04-20T23:50:12.406Z,9.71
2019-04-20T23:55:27.764Z,9.47
